Time;durP1;ratioP1;P1;durP2;ratioP2;P2;SDS_P1;SDS_P2;PMS_P1;PMS_P2;Temp;Humidity;BMP_temperature;BMP_pressure;BME280_temperature;BME280_humidity;BME280_pressure;Samples;Min_cycle;Max_cycle;Signal;HPM_P1;HPM_P2
2022/05/04 00:01:23;;;;;;;9.23;0.68;;;8.60;99.90;;;;;;5011583;28;20042;-75
2022/05/04 00:03:48;;;;;;;4.65;0.55;;;8.60;99.90;;;;;;5011737;28;20492;-75
2022/05/04 00:06:14;;;;;;;3.58;0.50;;;8.50;99.90;;;;;;5011734;28;20041;-75
2022/05/04 00:08:39;;;;;;;1.88;0.25;;;8.50;99.90;;;;;;5011380;28;20058;-74
2022/05/04 00:11:06;;;;;;;3.20;0.20;;;8.40;99.90;;;;;;5010995;28;20030;-74
2022/05/04 00:13:32;;;;;;;1.17;0.15;;;8.40;99.90;;;;;;5079160;28;20045;-75
2022/05/04 00:16:01;;;;;;;3.55;0.50;;;8.30;99.90;;;;;;5078526;28;20041;-74
2022/05/04 00:18:30;;;;;;;3.05;0.15;;;8.30;99.90;;;;;;5081020;28;20403;-74
2022/05/04 00:20:56;;;;;;;3.92;1.05;;;8.20;99.90;;;;;;5014571;28;20034;-74
2022/05/04 00:23:22;;;;;;;2.28;0.30;;;8.20;99.90;;;;;;5014500;28;20034;-74
2022/05/04 00:25:48;;;;;;;9.30;0.63;;;8.10;99.90;;;;;;5083031;28;20030;-74
2022/05/04 00:28:13;;;;;;;5.32;0.30;;;8.10;99.90;;;;;;5015017;28;20023;-74
2022/05/04 00:30:39;;;;;;;1.70;0.30;;;8.00;99.90;;;;;;5015242;28;20034;-74
2022/05/04 00:33:05;;;;;;;7.20;0.10;;;8.00;99.90;;;;;;5014412;28;20038;-74
2022/05/04 00:35:31;;;;;;;1.55;0.30;;;7.90;99.90;;;;;;5082318;28;20026;-74
2022/05/04 00:37:56;;;;;;;5.50;0.32;;;7.80;99.90;;;;;;5014960;28;20033;-74
2022/05/04 00:40:22;;;;;;;3.47;0.40;;;7.70;99.90;;;;;;5014780;28;20394;-74
2022/05/04 00:42:48;;;;;;;3.97;0.77;;;7.70;99.90;;;;;;5014567;28;20509;-74
2022/05/04 00:45:13;;;;;;;7.30;0.60;;;7.60;99.90;;;;;;5013899;28;20447;-74
2022/05/04 00:47:39;;;;;;;9.13;1.63;;;7.50;99.90;;;;;;5014139;28;20549;-74
2022/05/04 00:50:05;;;;;;;2.33;0.40;;;7.40;99.90;;;;;;5082573;28;20034;-74
2022/05/04 00:52:34;;;;;;;3.63;0.57;;;7.40;99.90;;;;;;5014432;28;20382;-74
2022/05/04 00:55:02;;;;;;;4.25;0.32;;;7.30;99.90;;;;;;5014243;28;20033;-74
2022/05/04 01:00:14;;;;;;;8.10;1.10;;;7.20;99.90;;;;;;5014627;28;20064;-74
2022/05/04 01:02:41;;;;;;;4.78;0.22;;;7.10;99.90;;;;;;5014027;28;20406;-74
2022/05/04 01:05:11;;;;;;;7.47;0.70;;;7.00;99.90;;;;;;5014550;28;20026;-74
2022/05/04 01:07:39;;;;;;;3.58;0.82;;;7.00;99.90;;;;;;5013798;28;20079;-74
2022/05/04 01:10:05;;;;;;;3.83;0.32;;;7.00;99.90;;;;;;5081660;28;20034;-74
2022/05/04 01:12:34;;;;;;;2.50;0.63;;;6.90;99.90;;;;;;5082251;28;20034;-74
2022/05/04 01:15:00;;;;;;;5.05;0.63;;;6.90;99.90;;;;;;5081927;28;20036;-74
2022/05/04 01:17:27;;;;;;;3.33;0.73;;;6.90;99.90;;;;;;5013967;28;20038;-74
2022/05/04 01:19:55;;;;;;;2.00;0.20;;;6.80;99.90;;;;;;5013845;28;20026;-74
2022/05/04 01:22:24;;;;;;;5.93;0.95;;;6.80;99.90;;;;;;5081592;28;20102;-74
2022/05/04 01:24:50;;;;;;;4.50;0.65;;;6.80;99.90;;;;;;5013629;28;20038;-74
2022/05/04 01:27:17;;;;;;;3.67;0.47;;;6.80;99.90;;;;;;5013781;28;20056;-73
2022/05/04 01:29:43;;;;;;;5.07;0.38;;;6.80;99.90;;;;;;5013649;28;20053;-74
2022/05/04 01:32:09;;;;;;;2.85;0.47;;;6.80;99.90;;;;;;5013476;28;20494;-74
2022/05/04 01:34:34;;;;;;;10.55;0.50;;;6.80;99.90;;;;;;5081448;28;20030;-74
2022/05/04 01:37:04;;;;;;;6.65;0.50;;;6.80;99.90;;;;;;5013235;28;20030;-74
2022/05/04 01:39:29;;;;;;;4.40;0.80;;;6.80;99.90;;;;;;5013366;28;20079;-74
2022/05/04 01:42:05;;;;;;;4.53;1.27;;;6.90;99.90;;;;;;5013629;28;20033;-74
2022/05/04 01:44:34;;;;;;;5.07;1.13;;;6.80;99.90;;;;;;5081716;28;20063;-74
2022/05/04 01:47:01;;;;;;;3.95;0.20;;;6.90;99.90;;;;;;5012972;28;20034;-74
2022/05/04 01:49:27;;;;;;;2.83;0.35;;;7.00;99.90;;;;;;5012978;28;20505;-73
2022/05/04 01:51:52;;;;;;;2.10;0.30;;;7.00;99.90;;;;;;5013109;28;20471;-74
2022/05/04 01:54:18;;;;;;;5.18;0.40;;;7.00;99.90;;;;;;5012976;28;20033;-74
2022/05/04 01:56:44;;;;;;;3.35;0.50;;;7.00;99.90;;;;;;5012978;28;20057;-74
2022/05/04 01:59:09;;;;;;;3.20;0.38;;;7.10;99.90;;;;;;5081023;28;20030;-74
2022/05/04 02:01:37;;;;;;;5.72;0.65;;;7.10;99.90;;;;;;5013378;28;20038;-74
2022/05/04 02:04:04;;;;;;;7.78;0.60;;;7.10;99.90;;;;;;5012936;28;20030;-74
2022/05/04 02:06:30;;;;;;;3.70;0.60;;;7.20;99.90;;;;;;5012615;28;20034;-74
2022/05/04 02:08:57;;;;;;;1.20;0.38;;;7.20;99.90;;;;;;5012947;28;20044;-74
2022/05/04 02:11:23;;;;;;;5.47;0.98;;;7.20;99.90;;;;;;5012635;28;20026;-74
2022/05/04 02:13:49;;;;;;;4.63;0.55;;;7.20;99.90;;;;;;5081101;28;20033;-74
2022/05/04 02:16:15;;;;;;;6.25;1.00;;;7.20;99.90;;;;;;5081106;28;20030;-74
2022/05/04 02:18:40;;;;;;;4.93;1.02;;;7.20;99.90;;;;;;5013085;28;20038;-74
2022/05/04 02:21:07;;;;;;;7.32;0.90;;;7.20;99.90;;;;;;5013080;28;20030;-74
2022/05/04 02:23:32;;;;;;;5.25;0.80;;;7.20;99.90;;;;;;5012668;28;20065;-74
2022/05/04 02:25:58;;;;;;;4.38;0.40;;;7.20;99.90;;;;;;5080476;28;20030;-74
2022/05/04 02:28:23;;;;;;;2.53;0.17;;;7.10;99.90;;;;;;5012872;28;20467;-74
2022/05/04 02:30:49;;;;;;;7.95;0.70;;;7.10;99.90;;;;;;5012648;28;20026;-74
2022/05/04 02:33:14;;;;;;;6.55;0.40;;;7.10;99.90;;;;;;5013110;28;20077;-74
2022/05/04 02:38:24;;;;;;;4.95;0.82;;;7.00;99.90;;;;;;5013561;28;20033;-74
2022/05/04 02:40:50;;;;;;;4.45;0.20;;;6.90;99.90;;;;;;5012145;28;20474;-74
2022/05/04 02:43:16;;;;;;;3.17;0.90;;;6.90;99.90;;;;;;5012535;28;20487;-74
2022/05/04 02:45:42;;;;;;;8.63;0.93;;;6.80;99.90;;;;;;5012606;28;20060;-74
2022/05/04 02:48:08;;;;;;;8.60;1.02;;;6.80;99.90;;;;;;5012370;28;20038;-74
2022/05/04 02:50:35;;;;;;;5.28;1.33;;;6.70;99.90;;;;;;5012311;28;20457;-74
2022/05/04 02:53:00;;;;;;;6.03;1.13;;;6.70;99.90;;;;;;5012154;28;20483;-74
2022/05/04 02:55:26;;;;;;;5.53;0.77;;;6.70;99.90;;;;;;5012768;28;20106;-74
2022/05/04 02:57:52;;;;;;;2.40;0.47;;;6.60;99.90;;;;;;5012124;28;20041;-74
2022/05/04 03:00:18;;;;;;;2.92;0.73;;;6.50;99.90;;;;;;5012266;28;20072;-73
2022/05/04 03:02:44;;;;;;;4.75;0.80;;;6.40;99.90;;;;;;5012503;28;20087;-73
2022/05/04 03:05:11;;;;;;;5.35;1.15;;;6.40;99.90;;;;;;5012284;28;20038;-73
2022/05/04 03:07:37;;;;;;;4.93;0.60;;;6.30;99.90;;;;;;5011942;28;20061;-73
2022/05/04 03:10:03;;;;;;;4.10;1.13;;;6.20;99.90;;;;;;5079935;28;20033;-73
2022/05/04 03:12:29;;;;;;;6.75;0.88;;;6.20;99.90;;;;;;5079565;28;20066;-73
2022/05/04 03:14:55;;;;;;;3.42;0.40;;;6.10;99.90;;;;;;5011998;28;20034;-73
2022/05/04 03:17:21;;;;;;;4.35;1.15;;;6.10;99.90;;;;;;5079245;28;20055;-73
2022/05/04 03:19:47;;;;;;;5.22;0.32;;;6.10;99.90;;;;;;5011806;28;20034;-73
2022/05/04 03:22:13;;;;;;;8.23;1.10;;;6.10;99.90;;;;;;5079532;28;20030;-73
2022/05/04 03:24:38;;;;;;;4.10;0.70;;;6.10;99.90;;;;;;5079969;28;20041;-73
2022/05/04 03:27:05;;;;;;;3.90;0.50;;;6.10;99.90;;;;;;5011730;28;20034;-73
2022/05/04 03:29:31;;;;;;;8.55;0.80;;;6.10;99.90;;;;;;5011381;28;20034;-73
2022/05/04 03:31:57;;;;;;;1.98;0.60;;;6.10;99.90;;;;;;5011978;28;20037;-73
2022/05/04 03:34:23;;;;;;;5.50;0.88;;;6.00;99.90;;;;;;5079033;28;20117;-73
2022/05/04 03:36:48;;;;;;;4.63;0.68;;;6.10;99.90;;;;;;5011503;28;20105;-73
2022/05/04 03:39:14;;;;;;;4.57;0.38;;;6.00;99.90;;;;;;5011578;28;20030;-73
2022/05/04 03:41:40;;;;;;;3.63;0.47;;;6.00;99.90;;;;;;5011245;28;20372;-73
2022/05/04 03:44:06;;;;;;;2.88;0.70;;;6.00;99.90;;;;;;5011200;28;20441;-73
2022/05/04 03:46:49;;;;;;;7.75;0.40;;;6.00;99.90;;;;;;5078800;28;20044;-73
2022/05/04 03:49:16;;;;;;;7.05;1.08;;;5.90;99.90;;;;;;5011059;28;20034;-73
2022/05/04 03:51:42;;;;;;;4.25;0.82;;;5.90;99.90;;;;;;5010264;28;20046;-73
2022/05/04 03:54:09;;;;;;;3.95;0.63;;;5.90;99.90;;;;;;5010541;28;20033;-73
2022/05/04 03:56:35;;;;;;;4.95;0.68;;;5.90;99.90;;;;;;5011086;28;20077;-73
2022/05/04 03:59:02;;;;;;;5.63;0.88;;;5.80;99.90;;;;;;5078667;28;20139;-73
2022/05/04 04:01:31;;;;;;;6.95;0.88;;;5.80;99.90;;;;;;5078809;28;20038;-73
2022/05/04 04:03:56;;;;;;;9.18;0.77;;;5.70;99.90;;;;;;5010946;28;20091;-73
2022/05/04 04:06:22;;;;;;;6.97;0.65;;;5.70;99.90;;;;;;5011068;28;20034;-73
2022/05/04 04:08:50;;;;;;;3.90;0.90;;;5.70;99.90;;;;;;5010792;28;20034;-73
2022/05/04 04:11:16;;;;;;;5.35;1.00;;;5.60;99.90;;;;;;5010770;28;20038;-73
2022/05/04 04:13:41;;;;;;;6.43;1.17;;;5.60;99.90;;;;;;5011575;28;20471;-73
2022/05/04 04:16:07;;;;;;;6.00;0.57;;;5.50;99.90;;;;;;5011301;28;20155;-73
2022/05/04 04:18:33;;;;;;;2.67;0.47;;;5.50;99.90;;;;;;5011361;28;20479;-73
2022/05/04 04:23:42;;;;;;;5.38;0.73;;;5.40;99.90;;;;;;5011759;28;20033;-73
2022/05/04 04:26:09;;;;;;;5.53;0.88;;;5.30;99.90;;;;;;5078668;28;20034;-73
2022/05/04 04:28:36;;;;;;;9.73;1.85;;;5.30;99.90;;;;;;5078418;28;20091;-73
2022/05/04 04:31:03;;;;;;;10.73;1.10;;;5.20;99.90;;;;;;5078600;28;20076;-73
2022/05/04 04:33:29;;;;;;;10.23;1.42;;;5.10;99.90;;;;;;5011233;28;20501;-73
2022/05/04 04:35:59;;;;;;;7.80;0.88;;;5.10;99.90;;;;;;5078502;28;20045;-73
2022/05/04 04:38:25;;;;;;;6.05;0.80;;;5.00;99.90;;;;;;5011233;28;20062;-73
2022/05/04 04:40:51;;;;;;;6.28;1.02;;;5.00;99.90;;;;;;5011137;28;20036;-73
2022/05/04 04:43:17;;;;;;;11.18;0.90;;;5.60;99.90;;;;;;5010562;28;20034;-73
2022/05/04 04:45:47;;;;;;;5.38;1.40;;;5.10;99.90;;;;;;5010806;28;20076;-73
2022/05/04 04:48:16;;;;;;;8.60;2.10;;;5.10;99.90;;;;;;5010571;28;20560;-73
2022/05/04 04:50:44;;;;;;;;;;;5.20;99.90;;;;;;5078392;28;20029;-73
2022/05/04 04:53:09;;;;;;;6.35;1.13;;;5.20;99.90;;;;;;5077995;28;19915;-73
2022/05/04 04:55:35;;;;;;;5.65;1.10;;;5.20;99.90;;;;;;5010520;28;20479;-73
2022/05/04 04:58:01;;;;;;;5.38;1.02;;;5.30;99.90;;;;;;5010412;28;20073;-73
2022/05/04 05:00:27;;;;;;;6.95;0.82;;;5.40;99.90;;;;;;5010439;28;20394;-73
2022/05/04 05:02:52;;;;;;;5.78;0.80;;;5.40;99.90;;;;;;5010923;28;20034;-73
2022/05/04 05:05:18;;;;;;;10.82;0.88;;;5.50;99.90;;;;;;5013540;28;20040;-73
2022/05/04 05:07:44;;;;;;;3.45;0.80;;;5.60;99.90;;;;;;5014211;28;20034;-73
2022/05/04 05:10:10;;;;;;;4.75;0.68;;;5.60;99.90;;;;;;5013782;28;20417;-73
2022/05/04 05:12:35;;;;;;;9.95;2.50;;;5.70;99.90;;;;;;5081738;28;20038;-73
2022/05/04 05:17:45;;;;;;;4.43;0.80;;;5.90;99.90;;;;;;5014103;28;20060;-73
2022/05/04 05:20:11;;;;;;;10.02;2.10;;;6.10;99.90;;;;;;5013833;28;20089;-73
2022/05/04 05:22:37;;;;;;;6.35;1.00;;;6.20;99.90;;;;;;5081388;28;20034;-73
2022/05/04 05:25:03;;;;;;;7.30;1.27;;;6.30;99.90;;;;;;5013615;28;20026;-73
2022/05/04 05:27:32;;;;;;;5.07;1.15;;;6.40;99.90;;;;;;5081448;28;20026;-73
2022/05/04 05:29:59;;;;;;;3.83;1.00;;;6.50;99.90;;;;;;5013673;28;20061;-73
2022/05/04 05:32:24;;;;;;;4.60;0.90;;;6.60;99.90;;;;;;5013202;28;20038;-73
2022/05/04 05:34:50;;;;;;;5.35;0.70;;;6.80;99.90;;;;;;5081696;28;20026;-73
2022/05/04 05:37:17;;;;;;;10.82;1.40;;;6.80;99.90;;;;;;5013595;28;20398;-73
2022/05/04 05:39:43;;;;;;;6.70;0.65;;;7.00;99.90;;;;;;5081214;28;20171;-73
2022/05/04 05:42:09;;;;;;;7.80;1.25;;;7.00;99.90;;;;;;5013562;28;20484;-73
2022/05/04 05:44:34;;;;;;;8.10;1.30;;;7.20;99.90;;;;;;5013374;28;20166;-73
2022/05/04 05:47:01;;;;;;;10.80;1.48;;;7.40;99.90;;;;;;5013083;28;20057;-73
2022/05/04 05:49:27;;;;;;;4.00;1.08;;;7.50;99.90;;;;;;5081242;28;20087;-73
2022/05/04 05:51:53;;;;;;;9.00;1.02;;;7.70;99.90;;;;;;5013377;28;20065;-73
2022/05/04 05:54:18;;;;;;;10.40;0.95;;;7.80;99.90;;;;;;5013045;28;20407;-73
2022/05/04 05:56:44;;;;;;;3.88;0.60;;;7.90;99.90;;;;;;5081009;28;20034;-73
2022/05/04 05:59:09;;;;;;;10.20;1.10;;;8.10;99.90;;;;;;5081365;28;20042;-73
2022/05/04 06:01:35;;;;;;;5.60;0.73;;;8.20;99.90;;;;;;5013290;28;20034;-73
2022/05/04 06:04:00;;;;;;;4.15;0.75;;;8.30;99.90;;;;;;5013071;28;20112;-73
2022/05/04 06:06:26;;;;;;;7.68;0.88;;;8.40;99.90;;;;;;5081001;28;20034;-73
2022/05/04 06:08:51;;;;;;;6.90;0.75;;;8.50;99.90;;;;;;5013428;28;20068;-73
2022/05/04 06:11:17;;;;;;;6.85;0.65;;;8.60;99.90;;;;;;5013122;28;20042;-73
2022/05/04 06:13:42;;;;;;;8.07;0.57;;;8.60;99.90;;;;;;5081265;28;20103;-73
2022/05/04 06:16:08;;;;;;;7.63;0.52;;;8.70;99.90;;;;;;5011846;28;20068;-73
2022/05/04 06:18:33;;;;;;;11.68;1.42;;;8.70;99.90;;;;;;5012830;28;20033;-73
2022/05/04 06:21:00;;;;;;;8.25;1.13;;;8.90;99.90;;;;;;5081143;28;20030;-73
2022/05/04 06:23:25;;;;;;;6.07;1.27;;;9.00;99.90;;;;;;5013095;28;20519;-73
2022/05/04 06:25:51;;;;;;;7.70;0.52;;;9.10;99.90;;;;;;5080273;28;20030;-73
2022/05/04 06:28:17;;;;;;;10.68;1.08;;;9.30;99.90;;;;;;5080332;28;20038;-73
2022/05/04 06:36:10;;;;;;;9.57;1.17;;;9.60;99.90;;;;;;5012900;28;20091;-73
2022/05/04 06:38:36;;;;;;;3.22;0.40;;;9.60;99.90;;;;;;5012125;28;20026;-73
2022/05/04 06:41:03;;;;;;;5.25;0.50;;;9.80;99.90;;;;;;5012195;28;20034;-73
2022/05/04 06:43:29;;;;;;;7.78;0.60;;;9.90;99.90;;;;;;5012294;28;20034;-73
2022/05/04 06:45:54;;;;;;;4.05;0.50;;;10.10;99.90;;;;;;5012331;28;20090;-73
2022/05/04 06:48:20;;;;;;;3.20;0.30;;;10.20;99.90;;;;;;5012142;28;20053;-73
2022/05/04 06:50:45;;;;;;;7.45;0.73;;;10.30;99.90;;;;;;5079921;28;20030;-74
2022/05/04 06:53:11;;;;;;;3.75;0.28;;;10.40;99.90;;;;;;5011795;28;20037;-74
2022/05/04 06:55:37;;;;;;;3.70;0.17;;;10.70;99.90;;;;;;5012224;28;20034;-74
2022/05/04 06:58:02;;;;;;;3.78;0.17;;;10.60;99.90;;;;;;5011729;28;20034;-74
2022/05/04 07:00:28;;;;;;;3.25;0.50;;;10.60;99.90;;;;;;5011541;28;20040;-74
2022/05/04 07:02:53;;;;;;;4.68;0.10;;;10.80;99.90;;;;;;5011550;28;20030;-74
2022/05/04 07:05:19;;;;;;;3.03;0.35;;;10.80;99.90;;;;;;5011401;28;20034;-74
2022/05/04 07:07:44;;;;;;;4.25;0.30;;;10.80;99.90;;;;;;5011681;28;20073;-74
2022/05/04 07:10:10;;;;;;;9.02;0.95;;;10.70;99.90;;;;;;5079182;28;20033;-73
2022/05/04 07:12:35;;;;;;;2.70;1.38;;;10.70;99.90;;;;;;5012021;28;20038;-73
2022/05/04 07:15:01;;;;;;;5.07;0.47;;;10.70;99.90;;;;;;5011710;28;20026;-73
2022/05/04 07:17:27;;;;;;;8.07;1.08;;;10.80;99.90;;;;;;5079018;28;20466;-73
2022/05/04 07:19:53;;;;;;;2.55;0.10;;;10.90;99.90;;;;;;5079065;28;20072;-73
2022/05/04 07:22:19;;;;;;;4.95;1.05;;;10.90;99.90;;;;;;5011349;28;20083;-73
2022/05/04 07:24:44;;;;;;;4.40;0.35;;;11.00;99.90;;;;;;5078975;28;20033;-73
2022/05/04 07:27:11;;;;;;;1.77;0.28;;;11.00;99.90;;;;;;5011486;28;20026;-73
2022/05/04 07:29:36;;;;;;;4.07;0.10;;;11.10;99.90;;;;;;5011246;28;20030;-74
2022/05/04 07:32:03;;;;;;;2.17;0.15;;;11.10;99.90;;;;;;5011032;28;20049;-74
2022/05/04 07:34:29;;;;;;;1.90;0.30;;;11.10;99.90;;;;;;5078499;28;20126;-73
2022/05/04 07:36:58;;;;;;;5.65;1.38;;;11.10;99.90;;;;;;5011099;28;20056;-73
2022/05/04 07:42:26;;;;;;;4.65;0.70;;;11.40;99.90;;;;;;5011274;28;20045;-73
2022/05/04 07:45:01;;;;;;;8.93;0.80;;;11.70;99.90;;;;;;5011663;28;20471;-73
2022/05/04 07:47:28;;;;;;;4.13;0.40;;;11.70;98.90;;;;;;5010819;28;20045;-74
2022/05/04 07:49:54;;;;;;;3.13;0.47;;;11.70;98.30;;;;;;5010761;28;20026;-73
2022/05/04 07:52:20;;;;;;;3.83;0.95;;;11.90;99.90;;;;;;5010702;28;20073;-73
2022/05/04 07:54:45;;;;;;;7.30;0.95;;;12.10;99.90;;;;;;5010846;28;20439;-73
2022/05/04 07:57:11;;;;;;;2.05;1.25;;;12.30;98.50;;;;;;5010617;28;20072;-73
2022/05/04 07:59:36;;;;;;;3.95;0.60;;;12.40;95.30;;;;;;5010878;28;20387;-73
2022/05/04 08:04:47;;;;;;;4.07;1.35;;;12.40;95.90;;;;;;5011440;28;20102;-73
2022/05/04 08:07:13;;;;;;;4.88;1.38;;;12.30;95.70;;;;;;5078216;28;20045;-73
2022/05/04 08:09:39;;;;;;;10.52;1.38;;;12.50;95.10;;;;;;5010519;28;20037;-73
2022/05/04 08:12:06;;;;;;;2.47;0.70;;;12.40;95.90;;;;;;5010555;28;20041;-73
2022/05/04 08:14:33;;;;;;;4.05;0.93;;;12.60;97.50;;;;;;5078140;28;20394;-73
2022/05/04 08:16:58;;;;;;;3.72;0.50;;;12.70;95.10;;;;;;5010553;28;20121;-73
2022/05/04 08:19:24;;;;;;;3.38;1.15;;;12.70;95.20;;;;;;5010693;28;20062;-73
2022/05/04 08:21:50;;;;;;;3.13;1.20;;;12.90;93.70;;;;;;5010613;28;20031;-73
2022/05/04 08:24:15;;;;;;;3.58;0.98;;;13.00;96.10;;;;;;5010371;28;20042;-73
2022/05/04 08:26:42;;;;;;;8.05;1.38;;;13.30;92.80;;;;;;5010300;28;20383;-73
2022/05/04 08:29:08;;;;;;;7.22;1.52;;;13.30;91.60;;;;;;5010365;28;20117;-73
2022/05/04 08:31:33;;;;;;;3.47;1.17;;;13.30;90.80;;;;;;5010359;28;20546;-73
2022/05/04 08:33:59;;;;;;;6.82;1.52;;;13.20;91.60;;;;;;5010297;28;20098;-73
2022/05/04 08:36:24;;;;;;;6.95;1.60;;;13.30;91.80;;;;;;5010517;28;20038;-73
2022/05/04 08:38:50;;;;;;;2.33;0.82;;;13.30;92.10;;;;;;5011481;28;20079;-73
2022/05/04 08:41:16;;;;;;;7.78;1.38;;;13.50;91.50;;;;;;5081736;28;20038;-73
2022/05/04 08:43:43;;;;;;;8.50;1.58;;;13.60;91.90;;;;;;5013871;28;20026;-74
2022/05/04 08:46:14;;;;;;;5.93;1.27;;;13.50;90.40;;;;;;5081679;28;20116;-73
2022/05/04 08:48:40;;;;;;;7.03;0.90;;;13.50;87.10;;;;;;5013817;28;20515;-73
2022/05/04 08:51:08;;;;;;;3.92;1.00;;;13.30;88.10;;;;;;5013487;28;20109;-73
2022/05/04 08:53:34;;;;;;;3.75;0.80;;;13.50;93.30;;;;;;5013789;28;20033;-73
2022/05/04 08:58:37;;;;;;;5.22;1.88;;;13.40;89.10;;;;;;4972813;28;20055;-75
2022/05/04 09:01:03;;;;;;;5.63;0.73;;;13.30;90.20;;;;;;4974425;28;20031;-75
2022/05/04 09:03:29;;;;;;;3.90;0.75;;;13.50;92.90;;;;;;4973103;28;20049;-75
2022/05/04 09:05:55;;;;;;;5.88;1.00;;;13.40;92.00;;;;;;4974245;28;20450;-75
2022/05/04 09:08:23;;;;;;;6.25;1.48;;;13.50;90.70;;;;;;4973114;28;20070;-75
2022/05/04 09:10:49;;;;;;;7.50;1.88;;;13.50;89.70;;;;;;4974396;28;20030;-75
2022/05/04 09:13:18;;;;;;;3.13;1.42;;;13.60;88.10;;;;;;4974789;28;20035;-75
2022/05/04 09:15:43;;;;;;;6.70;2.78;;;13.70;91.00;;;;;;4974093;28;20046;-75
2022/05/04 09:18:13;;;;;;;4.35;1.27;;;13.90;90.00;;;;;;4974188;28;20074;-75
2022/05/04 09:20:52;;;;;;;2.83;0.98;;;14.20;93.70;;;;;;4956749;28;20035;-75
2022/05/04 09:23:23;;;;;;;7.55;1.45;;;14.10;90.40;;;;;;4956827;28;20031;-75
2022/05/04 09:25:57;;;;;;;6.45;1.20;;;14.10;86.80;;;;;;4973921;28;20073;-75
2022/05/04 09:28:26;;;;;;;6.78;0.95;;;14.30;90.00;;;;;;4956640;28;20126;-75
2022/05/04 09:30:54;;;;;;;7.25;1.27;;;14.30;84.90;;;;;;4974215;28;20037;-76
2022/05/04 09:33:28;;;;;;;6.97;1.90;;;14.40;88.60;;;;;;4973804;28;20038;-75
2022/05/04 09:35:55;;;;;;;5.35;1.50;;;14.20;82.10;;;;;;4973819;28;20043;-75
2022/05/04 09:46:42;;;;;;;6.43;2.00;;;14.80;89.20;;;;;;4974172;28;20041;-75
2022/05/04 09:49:12;;;;;;;8.50;1.00;;;15.00;81.10;;;;;;4974137;28;20069;-75
2022/05/04 09:51:48;;;;;;;10.02;1.90;;;14.90;83.90;;;;;;4955165;28;20381;-75
2022/05/04 09:54:17;;;;;;;4.97;1.60;;;15.00;84.60;;;;;;4973614;28;20113;-75
2022/05/04 09:56:44;;;;;;;;;;;15.20;87.30;;;;;;4973910;28;20411;-75
2022/05/04 09:59:10;;;;;;;3.25;0.98;;;15.50;82.60;;;;;;4972347;28;19910;-75
2022/05/04 10:01:36;;;;;;;4.75;1.30;;;15.40;78.70;;;;;;4972180;28;20050;-75
2022/05/04 10:04:04;;;;;;;4.47;1.35;;;15.40;74.10;;;;;;4972175;28;20031;-75
2022/05/04 10:06:31;;;;;;;5.55;1.02;;;15.60;77.40;;;;;;4973372;28;20399;-75
2022/05/04 10:08:57;;;;;;;5.93;1.13;;;15.30;73.60;;;;;;4973412;28;20480;-75
2022/05/04 10:11:22;;;;;;;5.03;1.40;;;14.90;76.20;;;;;;4973567;28;20168;-75
2022/05/04 10:13:54;;;;;;;3.25;0.93;;;15.00;78.70;;;;;;4973276;28;20039;-75
2022/05/04 10:16:20;;;;;;;5.03;1.08;;;15.20;81.70;;;;;;4956102;28;20034;-75
2022/05/04 10:18:48;;;;;;;6.85;1.88;;;15.60;77.60;;;;;;4973565;28;20027;-75
2022/05/04 10:21:17;;;;;;;6.53;1.50;;;15.60;78.80;;;;;;4973124;28;20042;-75
2022/05/04 10:23:44;;;;;;;;;;;16.00;77.80;;;;;;4973562;28;20035;-76
2022/05/04 10:26:13;;;;;;;2.78;0.73;;;16.10;76.00;;;;;;4971803;28;19909;-75
2022/05/04 10:30:29;;;;;;;;;;;16.40;74.30;;;;;;4973456;28;20231;-75
2022/05/04 10:31:28;;;;;;;3.35;0.95;;;16.50;72.20;;;;;;4972711;28;19949;-75
2022/05/04 10:33:56;;;;;;;5.95;0.70;;;16.60;68.50;;;;;;4955655;28;20054;-75
2022/05/04 10:36:30;;;;;;;4.30;0.80;;;16.50;69.60;;;;;;4972941;28;20556;-75
2022/05/04 10:38:57;;;;;;;6.50;1.67;;;16.20;69.80;;;;;;4955697;28;20458;-75
2022/05/04 10:41:33;;;;;;;7.30;1.00;;;16.20;68.10;;;;;;4973240;28;20038;-75
2022/05/04 10:43:59;;;;;;;3.53;1.05;;;15.70;68.70;;;;;;4972889;28;20034;-75
2022/05/04 10:46:25;;;;;;;2.10;1.23;;;15.90;70.20;;;;;;4971621;28;20076;-75
2022/05/04 10:48:51;;;;;;;6.82;1.17;;;16.10;67.40;;;;;;4971546;28;20023;-75
2022/05/04 10:51:29;;;;;;;5.85;1.95;;;16.10;66.70;;;;;;4973003;28;20037;-75
2022/05/04 10:53:58;;;;;;;5.97;1.23;;;16.30;67.70;;;;;;4955471;28;20035;-74
2022/05/04 10:56:34;;;;;;;7.50;1.38;;;16.50;69.40;;;;;;4973123;28;20110;-74
2022/05/04 10:58:59;;;;;;;9.48;2.05;;;16.70;67.30;;;;;;4972784;28;20076;-74
2022/05/04 11:01:28;;;;;;;4.57;1.35;;;17.00;65.80;;;;;;4972426;28;20027;-74
2022/05/04 11:04:14;;;;;;;3.72;0.85;;;16.90;61.70;;;;;;4972585;28;20031;-74
2022/05/04 11:06:43;;;;;;;5.70;1.75;;;17.00;62.00;;;;;;4972330;28;20023;-74
2022/05/04 11:09:17;;;;;;;3.35;0.93;;;17.40;63.60;;;;;;4972272;28;20035;-74
2022/05/04 11:11:45;;;;;;;4.95;1.30;;;17.60;63.60;;;;;;4972549;28;20038;-75
2022/05/04 11:14:12;;;;;;;4.63;1.67;;;18.10;65.40;;;;;;4971142;28;20027;-75
2022/05/04 11:16:40;;;;;;;6.45;0.75;;;17.70;59.50;;;;;;4972348;28;20430;-74
2022/05/04 11:19:06;;;;;;;5.55;0.95;;;17.80;60.80;;;;;;4970978;28;20483;-74
2022/05/04 11:21:42;;;;;;;6.03;1.75;;;17.90;59.80;;;;;;4972179;28;20027;-74
2022/05/04 11:24:14;;;;;;;2.83;1.60;;;17.90;61.80;;;;;;4972281;28;20035;-74
2022/05/04 11:26:40;;;;;;;4.03;1.27;;;17.90;60.00;;;;;;4972219;28;20469;-74
2022/05/04 11:29:07;;;;;;;11.23;1.38;;;18.10;61.30;;;;;;4972167;28;20102;-74
2022/05/04 11:31:32;;;;;;;3.15;1.13;;;18.40;61.30;;;;;;4972031;28;20042;-74
2022/05/04 11:33:58;;;;;;;7.93;1.30;;;18.80;60.80;;;;;;4972121;28;20027;-74
2022/05/04 11:36:24;;;;;;;5.00;1.20;;;18.80;55.30;;;;;;4972300;28;20476;-74
2022/05/04 11:38:50;;;;;;;5.70;1.48;;;18.50;55.80;;;;;;4972104;28;20042;-74
2022/05/04 11:41:17;;;;;;;4.55;0.88;;;18.50;54.20;;;;;;4971971;28;20100;-74
2022/05/04 11:43:43;;;;;;;4.65;1.27;;;18.50;56.70;;;;;;4972228;28;20023;-74
2022/05/04 11:46:12;;;;;;;4.00;0.93;;;18.30;54.60;;;;;;4971829;28;20136;-74
2022/05/04 11:48:44;;;;;;;4.00;0.93;;;18.50;53.60;;;;;;4971879;28;20113;-74
2022/05/04 11:51:12;;;;;;;3.63;1.30;;;18.60;53.80;;;;;;4971851;28;20527;-74
2022/05/04 11:53:39;;;;;;;5.05;0.82;;;18.80;55.20;;;;;;4972212;28;20039;-75
2022/05/04 11:56:06;;;;;;;3.40;1.00;;;18.90;50.40;;;;;;4971650;28;20031;-74
2022/05/04 11:58:34;;;;;;;6.85;1.23;;;19.10;53.90;;;;;;4972703;28;20039;-74
2022/05/04 12:01:00;;;;;;;6.15;1.33;;;18.80;50.00;;;;;;4971853;28;20026;-74
2022/05/04 12:03:28;;;;;;;4.80;1.20;;;18.90;54.80;;;;;;4971987;28;20046;-74
2022/05/04 12:05:54;;;;;;;6.20;1.80;;;19.20;55.00;;;;;;4970311;28;20114;-75
2022/05/04 12:08:21;;;;;;;5.68;1.85;;;19.40;53.80;;;;;;4954332;28;20459;-74
2022/05/04 12:10:50;;;;;;;9.18;2.35;;;19.60;54.20;;;;;;4971672;28;20041;-74
2022/05/04 12:13:26;;;;;;;5.13;1.17;;;20.00;55.00;;;;;;4971909;28;20099;-74
2022/05/04 12:15:55;;;;;;;7.22;1.48;;;20.40;53.80;;;;;;4973733;28;20406;-74
2022/05/04 12:18:27;;;;;;;2.83;1.80;;;20.50;53.20;;;;;;4974962;28;20121;-74
2022/05/04 12:20:52;;;;;;;5.55;1.73;;;20.50;52.50;;;;;;4974995;28;20035;-74
2022/05/04 12:23:18;;;;;;;6.32;1.90;;;20.30;53.00;;;;;;4975250;28;20035;-74
2022/05/04 12:25:44;;;;;;;4.43;1.73;;;20.00;52.10;;;;;;4974809;28;20031;-74
2022/05/04 12:28:10;;;;;;;6.07;1.65;;;19.80;53.70;;;;;;4973734;28;20055;-74
2022/05/04 12:33:33;;;;;;;7.00;1.83;;;20.00;53.70;;;;;;4974806;28;20038;-74
2022/05/04 12:36:02;;;;;;;6.25;1.92;;;20.20;54.30;;;;;;4974734;28;20034;-74
2022/05/04 12:38:28;;;;;;;11.00;2.13;;;20.40;51.70;;;;;;4957513;28;20109;-74
2022/05/04 12:40:54;;;;;;;6.90;1.60;;;20.40;54.60;;;;;;4974658;28;20039;-74
2022/05/04 12:43:22;;;;;;;6.20;1.80;;;20.60;52.30;;;;;;4974910;28;20100;-74
2022/05/04 12:45:47;;;;;;;2.25;1.02;;;20.80;52.60;;;;;;4957329;28;20491;-74
2022/05/04 12:48:13;;;;;;;5.85;1.70;;;20.70;50.30;;;;;;4974611;28;20042;-74
2022/05/04 12:50:39;;;;;;;5.40;1.33;;;20.80;49.30;;;;;;4974883;28;20126;-74
2022/05/04 12:53:05;;;;;;;5.50;0.88;;;20.70;49.00;;;;;;4973256;28;20491;-74
2022/05/04 12:58:16;;;;;;;2.65;1.27;;;20.80;48.80;;;;;;4974502;28;20131;-74
2022/05/04 13:00:42;;;;;;;3.30;1.35;;;20.60;47.90;;;;;;4974380;28;20543;-74
2022/05/04 13:03:12;;;;;;;7.05;1.25;;;20.40;49.20;;;;;;4974356;28;20084;-74
2022/05/04 13:05:41;;;;;;;4.10;1.00;;;20.40;47.80;;;;;;4957139;28;20031;-74
2022/05/04 13:08:08;;;;;;;7.22;1.85;;;20.30;48.70;;;;;;4956989;28;20043;-74
2022/05/04 13:10:35;;;;;;;3.35;1.50;;;20.50;48.20;;;;;;4974300;28;20557;-74
2022/05/04 13:13:01;;;;;;;5.97;1.17;;;20.80;47.20;;;;;;4974157;28;20031;-74
2022/05/04 13:15:26;;;;;;;6.97;1.42;;;20.90;45.10;;;;;;4974153;28;20046;-74
2022/05/04 13:17:52;;;;;;;7.47;1.65;;;20.90;46.10;;;;;;4974307;28;20031;-74
2022/05/04 13:20:19;;;;;;;7.45;1.48;;;21.20;49.10;;;;;;4974379;28;20035;-74
2022/05/04 13:22:44;;;;;;;5.47;1.70;;;21.30;45.00;;;;;;4974145;28;20509;-74
2022/05/04 13:25:10;;;;;;;4.32;1.00;;;20.90;46.70;;;;;;4974084;28;20057;-74
2022/05/04 13:27:36;;;;;;;4.10;1.05;;;20.80;48.80;;;;;;4974065;28;20038;-74
2022/05/04 13:30:04;;;;;;;4.18;1.05;;;20.80;47.60;;;;;;4974021;28;20050;-74